sensor_id;sensor_type;location;lat;lon;timestamp;P1;durP1;ratioP1;P2;durP2;ratioP2
9388;SDS011;4734;52.778;6.798;2023-03-12T00:02:42;4.93;;;3.37;;
9388;SDS011;4734;52.778;6.798;2023-03-12T00:05:27;5.40;;;3.93;;
9388;SDS011;4734;52.778;6.798;2023-03-12T00:08:13;4.80;;;3.90;;
9388;SDS011;4734;52.778;6.798;2023-03-12T00:10:58;4.47;;;3.50;;
9388;SDS011;4734;52.778;6.798;2023-03-12T00:13:47;5.73;;;4.10;;
9388;SDS011;4734;52.778;6.798;2023-03-12T00:16:33;4.60;;;4.17;;
9388;SDS011;4734;52.778;6.798;2023-03-12T00:19:20;6.57;;;4.30;;
9388;SDS011;4734;52.778;6.798;2023-03-12T00:22:06;6.20;;;3.83;;
9388;SDS011;4734;52.778;6.798;2023-03-12T00:24:52;7.33;;;4.50;;
9388;SDS011;4734;52.778;6.798;2023-03-12T00:27:38;5.47;;;3.87;;
9388;SDS011;4734;52.778;6.798;2023-03-12T00:30:23;5.40;;;3.50;;
9388;SDS011;4734;52.778;6.798;2023-03-12T00:33:11;4.57;;;3.60;;
9388;SDS011;4734;52.778;6.798;2023-03-12T00:35:58;3.07;;;2.77;;
9388;SDS011;4734;52.778;6.798;2023-03-12T00:38:45;5.83;;;4.97;;
9388;SDS011;4734;52.778;6.798;2023-03-12T00:41:30;5.73;;;4.83;;
9388;SDS011;4734;52.778;6.798;2023-03-12T00:44:16;4.90;;;4.40;;
9388;SDS011;4734;52.778;6.798;2023-03-12T00:47:01;6.03;;;4.70;;
9388;SDS011;4734;52.778;6.798;2023-03-12T00:49:47;7.43;;;4.00;;
9388;SDS011;4734;52.778;6.798;2023-03-12T00:52:34;8.53;;;4.57;;
9388;SDS011;4734;52.778;6.798;2023-03-12T00:55:20;6.23;;;4.17;;
9388;SDS011;4734;52.778;6.798;2023-03-12T00:58:05;5.33;;;4.30;;
9388;SDS011;4734;52.778;6.798;2023-03-12T01:00:51;5.43;;;3.87;;
9388;SDS011;4734;52.778;6.798;2023-03-12T01:03:37;3.87;;;3.40;;
9388;SDS011;4734;52.778;6.798;2023-03-12T01:06:22;4.17;;;3.40;;
9388;SDS011;4734;52.778;6.798;2023-03-12T01:09:09;4.80;;;3.00;;
9388;SDS011;4734;52.778;6.798;2023-03-12T01:11:55;6.17;;;3.90;;
9388;SDS011;4734;52.778;6.798;2023-03-12T01:14:41;5.77;;;3.80;;
9388;SDS011;4734;52.778;6.798;2023-03-12T01:17:27;6.20;;;4.40;;
9388;SDS011;4734;52.778;6.798;2023-03-12T01:20:13;4.90;;;4.37;;
9388;SDS011;4734;52.778;6.798;2023-03-12T01:22:59;8.40;;;3.20;;
9388;SDS011;4734;52.778;6.798;2023-03-12T01:25:46;5.77;;;3.30;;
9388;SDS011;4734;52.778;6.798;2023-03-12T01:28:32;3.30;;;3.00;;
9388;SDS011;4734;52.778;6.798;2023-03-12T01:31:17;5.40;;;2.90;;
9388;SDS011;4734;52.778;6.798;2023-03-12T01:34:03;2.63;;;2.10;;
9388;SDS011;4734;52.778;6.798;2023-03-12T01:36:48;3.87;;;2.47;;
9388;SDS011;4734;52.778;6.798;2023-03-12T01:39:34;3.90;;;2.50;;
9388;SDS011;4734;52.778;6.798;2023-03-12T01:42:21;4.30;;;2.30;;
9388;SDS011;4734;52.778;6.798;2023-03-12T01:48:07;4.17;;;2.50;;
9388;SDS011;4734;52.778;6.798;2023-03-12T01:50:54;3.77;;;2.47;;
9388;SDS011;4734;52.778;6.798;2023-03-12T01:53:40;4.53;;;2.70;;
9388;SDS011;4734;52.778;6.798;2023-03-12T01:56:29;4.33;;;2.60;;
9388;SDS011;4734;52.778;6.798;2023-03-12T01:59:19;2.67;;;2.20;;
9388;SDS011;4734;52.778;6.798;2023-03-12T02:02:05;5.40;;;2.60;;
9388;SDS011;4734;52.778;6.798;2023-03-12T02:04:53;3.10;;;2.40;;
9388;SDS011;4734;52.778;6.798;2023-03-12T02:07:41;2.90;;;2.50;;
9388;SDS011;4734;52.778;6.798;2023-03-12T02:10:26;5.60;;;2.30;;
9388;SDS011;4734;52.778;6.798;2023-03-12T02:13:12;4.07;;;2.37;;
9388;SDS011;4734;52.778;6.798;2023-03-12T02:15:59;4.17;;;2.33;;
9388;SDS011;4734;52.778;6.798;2023-03-12T02:18:46;2.27;;;2.13;;
9388;SDS011;4734;52.778;6.798;2023-03-12T02:21:33;3.27;;;2.27;;
9388;SDS011;4734;52.778;6.798;2023-03-12T02:24:23;3.03;;;2.10;;
9388;SDS011;4734;52.778;6.798;2023-03-12T02:27:11;4.63;;;2.33;;
9388;SDS011;4734;52.778;6.798;2023-03-12T02:29:57;4.83;;;2.67;;
9388;SDS011;4734;52.778;6.798;2023-03-12T02:32:44;3.40;;;2.40;;
9388;SDS011;4734;52.778;6.798;2023-03-12T02:35:30;3.63;;;2.63;;
9388;SDS011;4734;52.778;6.798;2023-03-12T02:38:28;2.77;;;2.53;;
9388;SDS011;4734;52.778;6.798;2023-03-12T02:41:17;4.03;;;2.70;;
9388;SDS011;4734;52.778;6.798;2023-03-12T02:44:05;3.90;;;3.50;;
9388;SDS011;4734;52.778;6.798;2023-03-12T02:46:53;5.20;;;3.10;;
9388;SDS011;4734;52.778;6.798;2023-03-12T02:49:39;4.23;;;3.00;;
9388;SDS011;4734;52.778;6.798;2023-03-12T02:52:25;4.43;;;2.63;;
9388;SDS011;4734;52.778;6.798;2023-03-12T02:55:10;2.70;;;2.00;;
9388;SDS011;4734;52.778;6.798;2023-03-12T02:57:56;3.60;;;2.40;;
9388;SDS011;4734;52.778;6.798;2023-03-12T03:00:43;3.67;;;2.40;;
9388;SDS011;4734;52.778;6.798;2023-03-12T03:03:29;4.57;;;2.33;;
9388;SDS011;4734;52.778;6.798;2023-03-12T03:06:15;4.53;;;3.00;;
9388;SDS011;4734;52.778;6.798;2023-03-12T03:09:00;3.53;;;2.73;;
9388;SDS011;4734;52.778;6.798;2023-03-12T03:11:46;3.83;;;2.57;;
9388;SDS011;4734;52.778;6.798;2023-03-12T03:14:32;3.07;;;2.70;;
9388;SDS011;4734;52.778;6.798;2023-03-12T03:17:19;4.80;;;3.10;;
9388;SDS011;4734;52.778;6.798;2023-03-12T03:20:06;3.40;;;2.80;;
9388;SDS011;4734;52.778;6.798;2023-03-12T03:22:54;5.03;;;2.80;;
9388;SDS011;4734;52.778;6.798;2023-03-12T03:25:40;4.83;;;2.77;;
9388;SDS011;4734;52.778;6.798;2023-03-12T03:28:26;3.80;;;2.73;;
9388;SDS011;4734;52.778;6.798;2023-03-12T03:31:12;4.30;;;3.00;;
9388;SDS011;4734;52.778;6.798;2023-03-12T03:33:59;5.60;;;3.10;;
9388;SDS011;4734;52.778;6.798;2023-03-12T03:36:45;3.30;;;3.00;;
9388;SDS011;4734;52.778;6.798;2023-03-12T03:39:30;4.20;;;2.90;;
9388;SDS011;4734;52.778;6.798;2023-03-12T03:42:17;3.87;;;2.97;;
9388;SDS011;4734;52.778;6.798;2023-03-12T03:45:03;4.60;;;3.13;;
9388;SDS011;4734;52.778;6.798;2023-03-12T03:47:50;3.43;;;3.13;;
9388;SDS011;4734;52.778;6.798;2023-03-12T03:50:37;3.73;;;3.27;;
9388;SDS011;4734;52.778;6.798;2023-03-12T03:53:23;10.33;;;3.67;;
9388;SDS011;4734;52.778;6.798;2023-03-12T03:56:10;6.07;;;4.07;;
9388;SDS011;4734;52.778;6.798;2023-03-12T03:58:56;4.10;;;3.70;;
9388;SDS011;4734;52.778;6.798;2023-03-12T04:01:44;5.77;;;4.10;;
9388;SDS011;4734;52.778;6.798;2023-03-12T04:04:30;4.60;;;4.07;;
9388;SDS011;4734;52.778;6.798;2023-03-12T04:07:18;6.00;;;4.30;;
9388;SDS011;4734;52.778;6.798;2023-03-12T04:10:04;5.63;;;4.23;;
9388;SDS011;4734;52.778;6.798;2023-03-12T04:12:49;6.07;;;4.30;;
9388;SDS011;4734;52.778;6.798;2023-03-12T04:15:36;5.30;;;4.17;;
9388;SDS011;4734;52.778;6.798;2023-03-12T04:18:22;5.57;;;4.30;;
9388;SDS011;4734;52.778;6.798;2023-03-12T04:21:08;4.90;;;4.40;;
9388;SDS011;4734;52.778;6.798;2023-03-12T04:23:55;7.40;;;3.93;;
9388;SDS011;4734;52.778;6.798;2023-03-12T04:26:41;8.30;;;4.10;;
9388;SDS011;4734;52.778;6.798;2023-03-12T04:29:26;6.47;;;3.93;;
9388;SDS011;4734;52.778;6.798;2023-03-12T04:32:12;4.23;;;3.83;;
9388;SDS011;4734;52.778;6.798;2023-03-12T04:34:58;4.00;;;3.63;;
9388;SDS011;4734;52.778;6.798;2023-03-12T04:37:44;4.50;;;3.63;;
9388;SDS011;4734;52.778;6.798;2023-03-12T04:40:31;4.97;;;3.90;;
9388;SDS011;4734;52.778;6.798;2023-03-12T04:43:17;4.50;;;4.00;;
9388;SDS011;4734;52.778;6.798;2023-03-12T04:46:04;6.10;;;4.20;;
9388;SDS011;4734;52.778;6.798;2023-03-12T04:48:50;8.23;;;4.20;;
9388;SDS011;4734;52.778;6.798;2023-03-12T04:51:35;5.97;;;4.37;;
9388;SDS011;4734;52.778;6.798;2023-03-12T04:54:21;5.63;;;4.20;;
9388;SDS011;4734;52.778;6.798;2023-03-12T04:57:09;5.77;;;4.30;;
9388;SDS011;4734;52.778;6.798;2023-03-12T04:59:55;4.77;;;4.20;;
9388;SDS011;4734;52.778;6.798;2023-03-12T05:02:40;8.33;;;4.10;;
9388;SDS011;4734;52.778;6.798;2023-03-12T05:05:26;4.87;;;4.33;;
9388;SDS011;4734;52.778;6.798;2023-03-12T05:08:11;6.17;;;4.00;;
9388;SDS011;4734;52.778;6.798;2023-03-12T05:10:57;6.83;;;4.47;;
9388;SDS011;4734;52.778;6.798;2023-03-12T05:13:44;7.07;;;4.30;;
9388;SDS011;4734;52.778;6.798;2023-03-12T05:16:30;7.00;;;4.50;;
9388;SDS011;4734;52.778;6.798;2023-03-12T05:19:15;7.40;;;4.10;;
9388;SDS011;4734;52.778;6.798;2023-03-12T05:22:01;6.13;;;4.27;;
9388;SDS011;4734;52.778;6.798;2023-03-12T05:24:47;4.73;;;4.17;;
9388;SDS011;4734;52.778;6.798;2023-03-12T05:27:32;9.37;;;4.67;;
9388;SDS011;4734;52.778;6.798;2023-03-12T05:30:20;6.07;;;4.40;;
9388;SDS011;4734;52.778;6.798;2023-03-12T05:33:06;7.33;;;4.93;;
9388;SDS011;4734;52.778;6.798;2023-03-12T05:35:51;5.23;;;4.60;;
9388;SDS011;4734;52.778;6.798;2023-03-12T05:38:37;8.13;;;5.07;;
9388;SDS011;4734;52.778;6.798;2023-03-12T05:41:24;6.67;;;4.70;;
9388;SDS011;4734;52.778;6.798;2023-03-12T05:44:10;5.77;;;4.67;;
9388;SDS011;4734;52.778;6.798;2023-03-12T05:47:00;9.30;;;4.97;;
9388;SDS011;4734;52.778;6.798;2023-03-12T05:49:45;9.53;;;5.20;;
9388;SDS011;4734;52.778;6.798;2023-03-12T05:52:31;7.10;;;4.47;;
9388;SDS011;4734;52.778;6.798;2023-03-12T05:55:17;5.93;;;4.40;;
9388;SDS011;4734;52.778;6.798;2023-03-12T05:58:03;7.53;;;5.00;;
9388;SDS011;4734;52.778;6.798;2023-03-12T06:00:49;4.97;;;4.47;;
9388;SDS011;4734;52.778;6.798;2023-03-12T06:03:36;5.03;;;4.53;;
9388;SDS011;4734;52.778;6.798;2023-03-12T06:06:21;6.63;;;4.60;;
9388;SDS011;4734;52.778;6.798;2023-03-12T06:09:07;6.03;;;4.30;;
9388;SDS011;4734;52.778;6.798;2023-03-12T06:11:53;6.63;;;3.73;;
9388;SDS011;4734;52.778;6.798;2023-03-12T06:14:38;6.17;;;4.23;;
9388;SDS011;4734;52.778;6.798;2023-03-12T06:17:24;5.07;;;4.57;;
9388;SDS011;4734;52.778;6.798;2023-03-12T06:20:11;6.07;;;4.30;;
9388;SDS011;4734;52.778;6.798;2023-03-12T06:22:57;8.43;;;4.53;;
9388;SDS011;4734;52.778;6.798;2023-03-12T06:25:43;5.50;;;4.03;;
9388;SDS011;4734;52.778;6.798;2023-03-12T06:28:29;4.90;;;4.40;;
9388;SDS011;4734;52.778;6.798;2023-03-12T06:31:15;6.80;;;4.07;;
9388;SDS011;4734;52.778;6.798;2023-03-12T06:34:00;5.33;;;4.10;;
9388;SDS011;4734;52.778;6.798;2023-03-12T06:36:47;7.37;;;4.33;;
9388;SDS011;4734;52.778;6.798;2023-03-12T06:39:33;4.83;;;4.23;;
9388;SDS011;4734;52.778;6.798;2023-03-12T06:42:19;7.57;;;4.60;;
9388;SDS011;4734;52.778;6.798;2023-03-12T06:45:05;6.47;;;4.20;;
9388;SDS011;4734;52.778;6.798;2023-03-12T06:47:51;6.07;;;4.33;;
9388;SDS011;4734;52.778;6.798;2023-03-12T06:50:37;5.27;;;4.13;;
9388;SDS011;4734;52.778;6.798;2023-03-12T06:53:24;5.10;;;4.17;;
9388;SDS011;4734;52.778;6.798;2023-03-12T06:56:10;5.87;;;4.40;;
9388;SDS011;4734;52.778;6.798;2023-03-12T06:58:56;7.40;;;4.63;;
9388;SDS011;4734;52.778;6.798;2023-03-12T07:01:42;5.70;;;4.33;;
9388;SDS011;4734;52.778;6.798;2023-03-12T07:04:28;5.90;;;4.00;;
9388;SDS011;4734;52.778;6.798;2023-03-12T07:07:13;5.40;;;4.20;;
9388;SDS011;4734;52.778;6.798;2023-03-12T07:10:00;5.57;;;4.50;;
9388;SDS011;4734;52.778;6.798;2023-03-12T07:12:47;8.17;;;4.43;;
9388;SDS011;4734;52.778;6.798;2023-03-12T07:15:33;6.27;;;4.17;;
9388;SDS011;4734;52.778;6.798;2023-03-12T07:18:19;8.20;;;4.33;;
9388;SDS011;4734;52.778;6.798;2023-03-12T07:21:04;7.60;;;4.40;;
9388;SDS011;4734;52.778;6.798;2023-03-12T07:23:50;5.90;;;4.40;;
9388;SDS011;4734;52.778;6.798;2023-03-12T07:26:37;4.97;;;4.30;;
9388;SDS011;4734;52.778;6.798;2023-03-12T07:29:23;5.70;;;4.40;;
9388;SDS011;4734;52.778;6.798;2023-03-12T07:32:09;12.23;;;4.93;;
9388;SDS011;4734;52.778;6.798;2023-03-12T07:34:54;6.00;;;4.30;;
9388;SDS011;4734;52.778;6.798;2023-03-12T07:37:40;8.13;;;4.17;;
9388;SDS011;4734;52.778;6.798;2023-03-12T07:40:26;10.43;;;5.03;;
9388;SDS011;4734;52.778;6.798;2023-03-12T07:43:13;6.87;;;5.07;;
9388;SDS011;4734;52.778;6.798;2023-03-12T07:45:58;6.90;;;5.00;;
9388;SDS011;4734;52.778;6.798;2023-03-12T07:48:44;5.73;;;4.70;;
9388;SDS011;4734;52.778;6.798;2023-03-12T07:51:30;6.73;;;4.60;;
9388;SDS011;4734;52.778;6.798;2023-03-12T07:54:15;5.40;;;4.50;;
9388;SDS011;4734;52.778;6.798;2023-03-12T07:57:01;5.20;;;4.30;;
9388;SDS011;4734;52.778;6.798;2023-03-12T07:59:48;5.63;;;4.93;;
9388;SDS011;4734;52.778;6.798;2023-03-12T08:02:33;7.30;;;4.40;;
9388;SDS011;4734;52.778;6.798;2023-03-12T08:05:19;5.70;;;4.73;;
9388;SDS011;4734;52.778;6.798;2023-03-12T08:08:07;5.57;;;4.60;;
9388;SDS011;4734;52.778;6.798;2023-03-12T08:10:53;5.93;;;4.90;;
9388;SDS011;4734;52.778;6.798;2023-03-12T08:13:39;9.43;;;5.20;;
9388;SDS011;4734;52.778;6.798;2023-03-12T08:16:25;5.87;;;4.37;;
9388;SDS011;4734;52.778;6.798;2023-03-12T08:19:11;7.27;;;5.03;;
9388;SDS011;4734;52.778;6.798;2023-03-12T08:21:57;6.47;;;4.97;;
9388;SDS011;4734;52.778;6.798;2023-03-12T08:24:43;9.07;;;5.00;;
9388;SDS011;4734;52.778;6.798;2023-03-12T08:27:29;5.43;;;4.53;;
9388;SDS011;4734;52.778;6.798;2023-03-12T08:30:14;6.87;;;4.80;;
9388;SDS011;4734;52.778;6.798;2023-03-12T08:33:01;6.53;;;4.83;;
9388;SDS011;4734;52.778;6.798;2023-03-12T08:35:47;5.57;;;5.07;;
9388;SDS011;4734;52.778;6.798;2023-03-12T08:38:33;7.30;;;4.70;;
9388;SDS011;4734;52.778;6.798;2023-03-12T08:41:19;5.47;;;4.57;;
9388;SDS011;4734;52.778;6.798;2023-03-12T08:44:04;5.57;;;5.03;;
9388;SDS011;4734;52.778;6.798;2023-03-12T08:46:50;10.03;;;5.50;;
9388;SDS011;4734;52.778;6.798;2023-03-12T08:49:38;5.30;;;4.80;;
9388;SDS011;4734;52.778;6.798;2023-03-12T08:52:24;6.47;;;4.73;;
9388;SDS011;4734;52.778;6.798;2023-03-12T08:55:09;7.03;;;5.10;;
9388;SDS011;4734;52.778;6.798;2023-03-12T08:57:55;6.47;;;5.07;;
9388;SDS011;4734;52.778;6.798;2023-03-12T09:00:41;5.80;;;4.93;;
9388;SDS011;4734;52.778;6.798;2023-03-12T09:03:27;7.37;;;5.00;;
9388;SDS011;4734;52.778;6.798;2023-03-12T09:06:14;7.20;;;5.20;;
9388;SDS011;4734;52.778;6.798;2023-03-12T09:09:02;8.57;;;5.10;;
9388;SDS011;4734;52.778;6.798;2023-03-12T09:11:48;6.83;;;4.87;;
9388;SDS011;4734;52.778;6.798;2023-03-12T09:14:34;6.40;;;5.17;;
9388;SDS011;4734;52.778;6.798;2023-03-12T09:17:19;7.13;;;5.77;;
9388;SDS011;4734;52.778;6.798;2023-03-12T09:20:06;5.90;;;5.27;;
9388;SDS011;4734;52.778;6.798;2023-03-12T09:22:53;6.23;;;5.20;;
9388;SDS011;4734;52.778;6.798;2023-03-12T09:25:39;7.63;;;5.60;;
9388;SDS011;4734;52.778;6.798;2023-03-12T09:28:24;6.83;;;5.57;;
9388;SDS011;4734;52.778;6.798;2023-03-12T09:31:10;7.73;;;6.20;;
9388;SDS011;4734;52.778;6.798;2023-03-12T09:33:56;8.70;;;5.87;;
9388;SDS011;4734;52.778;6.798;2023-03-12T09:36:41;6.27;;;5.60;;
9388;SDS011;4734;52.778;6.798;2023-03-12T09:39:28;8.77;;;6.00;;
9388;SDS011;4734;52.778;6.798;2023-03-12T09:42:17;7.00;;;6.30;;
9388;SDS011;4734;52.778;6.798;2023-03-12T09:45:06;10.77;;;7.30;;
9388;SDS011;4734;52.778;6.798;2023-03-12T09:47:54;7.60;;;6.87;;
9388;SDS011;4734;52.778;6.798;2023-03-12T09:50:42;9.00;;;6.93;;
9388;SDS011;4734;52.778;6.798;2023-03-12T09:53:29;8.53;;;7.40;;
9388;SDS011;4734;52.778;6.798;2023-03-12T09:56:19;8.07;;;7.30;;
9388;SDS011;4734;52.778;6.798;2023-03-12T09:59:08;8.23;;;7.43;;
9388;SDS011;4734;52.778;6.798;2023-03-12T10:01:55;8.43;;;7.70;;
9388;SDS011;4734;52.778;6.798;2023-03-12T10:04:43;9.70;;;8.20;;
9388;SDS011;4734;52.778;6.798;2023-03-12T10:07:31;9.77;;;6.80;;
9388;SDS011;4734;52.778;6.798;2023-03-12T10:10:30;7.57;;;6.30;;
9388;SDS011;4734;52.778;6.798;2023-03-12T10:13:24;7.43;;;6.17;;
9388;SDS011;4734;52.778;6.798;2023-03-12T10:16:15;10.77;;;7.40;;
9388;SDS011;4734;52.778;6.798;2023-03-12T10:19:11;8.07;;;7.23;;
9388;SDS011;4734;52.778;6.798;2023-03-12T10:22:04;8.40;;;7.60;;
9388;SDS011;4734;52.778;6.798;2023-03-12T10:24:54;7.83;;;7.03;;
9388;SDS011;4734;52.778;6.798;2023-03-12T10:27:41;9.70;;;7.23;;
9388;SDS011;4734;52.778;6.798;2023-03-12T10:30:29;7.90;;;7.03;;
9388;SDS011;4734;52.778;6.798;2023-03-12T10:33:17;9.53;;;6.97;;
9388;SDS011;4734;52.778;6.798;2023-03-12T10:36:07;9.17;;;7.37;;
9388;SDS011;4734;52.778;6.798;2023-03-12T10:38:54;10.00;;;7.40;;
9388;SDS011;4734;52.778;6.798;2023-03-12T10:41:40;8.60;;;7.70;;
9388;SDS011;4734;52.778;6.798;2023-03-12T10:44:26;8.23;;;7.43;;
9388;SDS011;4734;52.778;6.798;2023-03-12T10:47:24;8.70;;;7.33;;
9388;SDS011;4734;52.778;6.798;2023-03-12T10:50:14;8.23;;;7.30;;
9388;SDS011;4734;52.778;6.798;2023-03-12T10:53:20;8.37;;;7.57;;
9388;SDS011;4734;52.778;6.798;2023-03-12T10:56:07;12.47;;;8.83;;
9388;SDS011;4734;52.778;6.798;2023-03-12T10:58:52;8.60;;;7.73;;
9388;SDS011;4734;52.778;6.798;2023-03-12T11:01:41;9.40;;;8.50;;
9388;SDS011;4734;52.778;6.798;2023-03-12T11:04:33;10.13;;;8.53;;
9388;SDS011;4734;52.778;6.798;2023-03-12T11:07:20;9.07;;;8.20;;
9388;SDS011;4734;52.778;6.798;2023-03-12T11:10:14;9.90;;;8.93;;
9388;SDS011;4734;52.778;6.798;2023-03-12T11:13:01;12.37;;;9.43;;
9388;SDS011;4734;52.778;6.798;2023-03-12T11:15:48;10.23;;;9.23;;
9388;SDS011;4734;52.778;6.798;2023-03-12T11:18:35;10.20;;;9.20;;
9388;SDS011;4734;52.778;6.798;2023-03-12T11:21:24;10.20;;;9.23;;
9388;SDS011;4734;52.778;6.798;2023-03-12T11:24:10;11.60;;;10.40;;
9388;SDS011;4734;52.778;6.798;2023-03-12T11:26:58;11.70;;;9.53;;
9388;SDS011;4734;52.778;6.798;2023-03-12T11:29:47;10.80;;;9.40;;
9388;SDS011;4734;52.778;6.798;2023-03-12T11:32:34;10.37;;;9.43;;
9388;SDS011;4734;52.778;6.798;2023-03-12T11:35:24;10.10;;;9.07;;
9388;SDS011;4734;52.778;6.798;2023-03-12T11:38:17;11.13;;;9.43;;
9388;SDS011;4734;52.778;6.798;2023-03-12T11:41:06;10.87;;;9.90;;
9388;SDS011;4734;52.778;6.798;2023-03-12T11:44:03;14.80;;;11.50;;
9388;SDS011;4734;52.778;6.798;2023-03-12T11:46:56;15.13;;;9.87;;
9388;SDS011;4734;52.778;6.798;2023-03-12T11:49:47;11.57;;;8.43;;
9388;SDS011;4734;52.778;6.798;2023-03-12T11:52:36;10.87;;;8.67;;
9388;SDS011;4734;52.778;6.798;2023-03-12T11:55:36;13.13;;;8.33;;
9388;SDS011;4734;52.778;6.798;2023-03-12T11:58:25;12.57;;;8.80;;
9388;SDS011;4734;52.778;6.798;2023-03-12T12:01:17;12.77;;;9.97;;
9388;SDS011;4734;52.778;6.798;2023-03-12T12:04:12;11.10;;;9.30;;
9388;SDS011;4734;52.778;6.798;2023-03-12T12:07:05;11.97;;;10.10;;
9388;SDS011;4734;52.778;6.798;2023-03-12T12:09:55;14.43;;;10.90;;
9388;SDS011;4734;52.778;6.798;2023-03-12T12:12:46;14.33;;;9.17;;
9388;SDS011;4734;52.778;6.798;2023-03-12T12:15:36;17.00;;;8.80;;
9388;SDS011;4734;52.778;6.798;2023-03-12T12:21:33;17.60;;;10.47;;
9388;SDS011;4734;52.778;6.798;2023-03-12T12:24:32;12.30;;;9.33;;
9388;SDS011;4734;52.778;6.798;2023-03-12T12:27:23;20.10;;;13.10;;
9388;SDS011;4734;52.778;6.798;2023-03-12T12:30:13;15.27;;;11.50;;
9388;SDS011;4734;52.778;6.798;2023-03-12T12:33:05;15.93;;;10.73;;
9388;SDS011;4734;52.778;6.798;2023-03-12T12:35:54;17.00;;;11.07;;
9388;SDS011;4734;52.778;6.798;2023-03-12T12:38:40;17.77;;;12.27;;
9388;SDS011;4734;52.778;6.798;2023-03-12T12:41:27;17.37;;;11.37;;
9388;SDS011;4734;52.778;6.798;2023-03-12T12:44:15;16.80;;;11.20;;
9388;SDS011;4734;52.778;6.798;2023-03-12T12:47:04;20.90;;;11.63;;
9388;SDS011;4734;52.778;6.798;2023-03-12T12:49:51;18.80;;;12.13;;
9388;SDS011;4734;52.778;6.798;2023-03-12T12:52:39;20.57;;;13.57;;
9388;SDS011;4734;52.778;6.798;2023-03-12T12:55:26;23.13;;;14.27;;
9388;SDS011;4734;52.778;6.798;2023-03-12T12:58:14;21.40;;;13.40;;
9388;SDS011;4734;52.778;6.798;2023-03-12T13:01:01;28.77;;;14.47;;
9388;SDS011;4734;52.778;6.798;2023-03-12T13:03:48;20.47;;;10.77;;
9388;SDS011;4734;52.778;6.798;2023-03-12T13:06:56;21.37;;;12.47;;
9388;SDS011;4734;52.778;6.798;2023-03-12T13:09:44;23.67;;;12.83;;
9388;SDS011;4734;52.778;6.798;2023-03-12T13:12:30;25.40;;;14.40;;
9388;SDS011;4734;52.778;6.798;2023-03-12T13:15:32;25.90;;;16.23;;
9388;SDS011;4734;52.778;6.798;2023-03-12T13:18:22;29.37;;;16.07;;
9388;SDS011;4734;52.778;6.798;2023-03-12T13:21:13;28.73;;;15.40;;
9388;SDS011;4734;52.778;6.798;2023-03-12T13:24:05;33.67;;;16.73;;
9388;SDS011;4734;52.778;6.798;2023-03-12T13:26:52;41.57;;;18.40;;
9388;SDS011;4734;52.778;6.798;2023-03-12T13:29:43;32.30;;;16.33;;
9388;SDS011;4734;52.778;6.798;2023-03-12T13:32:36;33.80;;;17.53;;
9388;SDS011;4734;52.778;6.798;2023-03-12T13:35:29;36.80;;;16.43;;
9388;SDS011;4734;52.778;6.798;2023-03-12T13:38:22;28.70;;;14.10;;
9388;SDS011;4734;52.778;6.798;2023-03-12T13:41:28;36.97;;;15.50;;
9388;SDS011;4734;52.778;6.798;2023-03-12T13:44:28;30.77;;;14.30;;
9388;SDS011;4734;52.778;6.798;2023-03-12T13:47:19;35.63;;;15.17;;
9388;SDS011;4734;52.778;6.798;2023-03-12T13:50:07;34.07;;;15.03;;
9388;SDS011;4734;52.778;6.798;2023-03-12T13:53:02;37.07;;;16.60;;
9388;SDS011;4734;52.778;6.798;2023-03-12T13:55:58;40.87;;;16.87;;
9388;SDS011;4734;52.778;6.798;2023-03-12T13:58:47;42.50;;;18.23;;
9388;SDS011;4734;52.778;6.798;2023-03-12T14:01:35;35.27;;;17.93;;
9388;SDS011;4734;52.778;6.798;2023-03-12T14:04:22;39.07;;;15.93;;
9388;SDS011;4734;52.778;6.798;2023-03-12T14:07:16;41.30;;;16.87;;
9388;SDS011;4734;52.778;6.798;2023-03-12T14:10:08;42.57;;;16.20;;
9388;SDS011;4734;52.778;6.798;2023-03-12T14:13:00;36.80;;;16.70;;
9388;SDS011;4734;52.778;6.798;2023-03-12T14:15:50;38.73;;;17.23;;
9388;SDS011;4734;52.778;6.798;2023-03-12T14:18:38;36.67;;;19.93;;
9388;SDS011;4734;52.778;6.798;2023-03-12T14:21:29;39.07;;;15.13;;
9388;SDS011;4734;52.778;6.798;2023-03-12T14:24:21;37.40;;;17.00;;
9388;SDS011;4734;52.778;6.798;2023-03-12T14:27:10;37.80;;;14.67;;
9388;SDS011;4734;52.778;6.798;2023-03-12T14:30:03;37.30;;;13.87;;
9388;SDS011;4734;52.778;6.798;2023-03-12T14:32:52;39.20;;;16.63;;
9388;SDS011;4734;52.778;6.798;2023-03-12T14:35:41;32.20;;;15.53;;
9388;SDS011;4734;52.778;6.798;2023-03-12T14:38:29;34.67;;;14.30;;
9388;SDS011;4734;52.778;6.798;2023-03-12T14:41:15;37.40;;;15.67;;
9388;SDS011;4734;52.778;6.798;2023-03-12T14:44:03;37.73;;;15.27;;
9388;SDS011;4734;52.778;6.798;2023-03-12T14:46:58;42.27;;;14.63;;
9388;SDS011;4734;52.778;6.798;2023-03-12T14:49:45;38.87;;;14.70;;
9388;SDS011;4734;52.778;6.798;2023-03-12T14:52:31;41.83;;;14.10;;
9388;SDS011;4734;52.778;6.798;2023-03-12T14:55:18;40.87;;;14.53;;
9388;SDS011;4734;52.778;6.798;2023-03-12T14:58:05;42.10;;;14.30;;
9388;SDS011;4734;52.778;6.798;2023-03-12T15:00:54;49.33;;;14.50;;
9388;SDS011;4734;52.778;6.798;2023-03-12T15:03:43;39.10;;;14.60;;
9388;SDS011;4734;52.778;6.798;2023-03-12T15:06:31;38.10;;;12.50;;
9388;SDS011;4734;52.778;6.798;2023-03-12T15:09:17;34.37;;;12.50;;
9388;SDS011;4734;52.778;6.798;2023-03-12T15:12:05;38.70;;;11.83;;
9388;SDS011;4734;52.778;6.798;2023-03-12T15:14:52;37.93;;;11.37;;
9388;SDS011;4734;52.778;6.798;2023-03-12T15:17:38;30.43;;;9.43;;
9388;SDS011;4734;52.778;6.798;2023-03-12T15:20:25;33.10;;;9.10;;
9388;SDS011;4734;52.778;6.798;2023-03-12T15:23:12;32.03;;;7.93;;
9388;SDS011;4734;52.778;6.798;2023-03-12T15:26:08;32.73;;;7.63;;
9388;SDS011;4734;52.778;6.798;2023-03-12T15:28:55;33.93;;;8.30;;
9388;SDS011;4734;52.778;6.798;2023-03-12T15:31:42;36.57;;;8.30;;
9388;SDS011;4734;52.778;6.798;2023-03-12T15:34:29;37.13;;;9.77;;
9388;SDS011;4734;52.778;6.798;2023-03-12T15:37:21;35.90;;;7.67;;
9388;SDS011;4734;52.778;6.798;2023-03-12T15:40:15;37.43;;;7.53;;
9388;SDS011;4734;52.778;6.798;2023-03-12T15:43:04;44.03;;;9.10;;
9388;SDS011;4734;52.778;6.798;2023-03-12T15:45:55;42.20;;;8.13;;
9388;SDS011;4734;52.778;6.798;2023-03-12T15:48:45;39.43;;;7.50;;
9388;SDS011;4734;52.778;6.798;2023-03-12T15:51:33;29.87;;;7.47;;
9388;SDS011;4734;52.778;6.798;2023-03-12T15:54:23;34.93;;;7.73;;
9388;SDS011;4734;52.778;6.798;2023-03-12T15:57:10;40.53;;;7.77;;
9388;SDS011;4734;52.778;6.798;2023-03-12T16:00:11;44.53;;;8.00;;
9388;SDS011;4734;52.778;6.798;2023-03-12T16:03:01;35.07;;;6.97;;
9388;SDS011;4734;52.778;6.798;2023-03-12T16:05:48;33.73;;;7.00;;
9388;SDS011;4734;52.778;6.798;2023-03-12T16:08:35;35.57;;;8.20;;
9388;SDS011;4734;52.778;6.798;2023-03-12T16:11:24;39.67;;;6.87;;
9388;SDS011;4734;52.778;6.798;2023-03-12T16:14:12;40.60;;;7.63;;
9388;SDS011;4734;52.778;6.798;2023-03-12T16:16:59;42.30;;;7.70;;
9388;SDS011;4734;52.778;6.798;2023-03-12T16:19:46;37.20;;;7.30;;
9388;SDS011;4734;52.778;6.798;2023-03-12T16:22:31;45.20;;;7.80;;
9388;SDS011;4734;52.778;6.798;2023-03-12T16:25:17;40.10;;;6.90;;
9388;SDS011;4734;52.778;6.798;2023-03-12T16:28:04;27.03;;;6.37;;
9388;SDS011;4734;52.778;6.798;2023-03-12T16:30:51;39.40;;;7.50;;
9388;SDS011;4734;52.778;6.798;2023-03-12T16:33:37;45.93;;;7.90;;
9388;SDS011;4734;52.778;6.798;2023-03-12T16:36:22;37.70;;;7.60;;
9388;SDS011;4734;52.778;6.798;2023-03-12T16:39:08;35.67;;;6.47;;
9388;SDS011;4734;52.778;6.798;2023-03-12T16:41:54;38.87;;;6.60;;
9388;SDS011;4734;52.778;6.798;2023-03-12T16:44:41;33.50;;;7.37;;
9388;SDS011;4734;52.778;6.798;2023-03-12T16:47:28;33.87;;;6.10;;
9388;SDS011;4734;52.778;6.798;2023-03-12T16:50:15;32.00;;;7.03;;
9388;SDS011;4734;52.778;6.798;2023-03-12T16:53:01;39.60;;;7.93;;
9388;SDS011;4734;52.778;6.798;2023-03-12T16:55:48;39.60;;;6.63;;
9388;SDS011;4734;52.778;6.798;2023-03-12T16:58:35;42.90;;;6.97;;
9388;SDS011;4734;52.778;6.798;2023-03-12T17:01:22;30.60;;;5.87;;
9388;SDS011;4734;52.778;6.798;2023-03-12T17:04:09;38.30;;;6.43;;
9388;SDS011;4734;52.778;6.798;2023-03-12T17:06:55;37.33;;;7.43;;
9388;SDS011;4734;52.778;6.798;2023-03-12T17:09:41;29.67;;;5.93;;
9388;SDS011;4734;52.778;6.798;2023-03-12T17:12:27;35.67;;;6.17;;
9388;SDS011;4734;52.778;6.798;2023-03-12T17:15:15;35.40;;;6.07;;
9388;SDS011;4734;52.778;6.798;2023-03-12T17:18:04;28.83;;;4.93;;
9388;SDS011;4734;52.778;6.798;2023-03-12T17:20:51;29.60;;;6.10;;